Proctor, Vermont
Current Conditions -  °F | °C
As of 11:15 AM on Thursday 18 Dec 2014 (Local Time) from KRUT Reporting Station
Overcast Overcast  
Wind Chill: 25°   Ceiling: 2700
Heat Index: 34°   Visibility: 10mi
Dew Point: 27°   Wind: 13mph
Humidity: 75%   Direction: 280°W
Pressure: 29.83"   Gusts: 18mph
Location:  43.66°N, 73.04°W
Report Text: KRUT 181615Z 28011G16KT 10SM BKN027 OVC034 01/M03 A2983 RMK AO1
Loading
Personal Weather Stations






























Interactive Weather Map New forecast layout! Learn more

10-Day Weather Forecast

Advertisements
Track Severe Weather on mobile